sensor_id;sensor_type;location;lat;lon;timestamp;P1;durP1;ratioP1;P2;durP2;ratioP2
36827;SDS011;22766;48.042;11.192;2022-09-16T00:00:47;4.13;;;1.98;;
36827;SDS011;22766;48.042;11.192;2022-09-16T00:03:14;2.88;;;1.90;;
36827;SDS011;22766;48.042;11.192;2022-09-16T00:05:43;5.25;;;2.05;;
36827;SDS011;22766;48.042;11.192;2022-09-16T00:08:12;2.88;;;1.88;;
36827;SDS011;22766;48.042;11.192;2022-09-16T00:10:39;2.90;;;1.70;;
36827;SDS011;22766;48.042;11.192;2022-09-16T00:13:06;2.78;;;1.70;;
36827;SDS011;22766;48.042;11.192;2022-09-16T00:15:33;2.47;;;1.50;;
36827;SDS011;22766;48.042;11.192;2022-09-16T00:17:59;1.88;;;1.35;;
36827;SDS011;22766;48.042;11.192;2022-09-16T00:20:26;2.58;;;1.63;;
36827;SDS011;22766;48.042;11.192;2022-09-16T00:22:53;2.45;;;1.33;;
36827;SDS011;22766;48.042;11.192;2022-09-16T00:25:19;4.90;;;1.92;;
36827;SDS011;22766;48.042;11.192;2022-09-16T00:27:47;2.35;;;1.40;;
36827;SDS011;22766;48.042;11.192;2022-09-16T00:30:14;3.80;;;2.33;;
36827;SDS011;22766;48.042;11.192;2022-09-16T00:32:42;3.10;;;2.15;;
36827;SDS011;22766;48.042;11.192;2022-09-16T00:35:09;2.60;;;1.52;;
36827;SDS011;22766;48.042;11.192;2022-09-16T00:37:36;3.28;;;1.73;;
36827;SDS011;22766;48.042;11.192;2022-09-16T00:40:03;5.35;;;2.28;;
36827;SDS011;22766;48.042;11.192;2022-09-16T00:42:30;3.45;;;1.83;;
36827;SDS011;22766;48.042;11.192;2022-09-16T00:45:24;3.10;;;1.65;;
36827;SDS011;22766;48.042;11.192;2022-09-16T00:48:00;3.00;;;1.88;;
36827;SDS011;22766;48.042;11.192;2022-09-16T00:53:04;3.38;;;2.00;;
36827;SDS011;22766;48.042;11.192;2022-09-16T00:55:35;3.92;;;1.98;;
36827;SDS011;22766;48.042;11.192;2022-09-16T01:00:52;3.58;;;1.92;;
36827;SDS011;22766;48.042;11.192;2022-09-16T01:03:19;4.60;;;2.40;;
36827;SDS011;22766;48.042;11.192;2022-09-16T01:05:46;2.88;;;1.90;;
36827;SDS011;22766;48.042;11.192;2022-09-16T01:08:13;3.97;;;1.90;;
36827;SDS011;22766;48.042;11.192;2022-09-16T01:10:41;3.38;;;1.88;;
36827;SDS011;22766;48.042;11.192;2022-09-16T01:13:09;4.53;;;2.35;;
36827;SDS011;22766;48.042;11.192;2022-09-16T01:32:40;4.22;;;1.77;;
36827;SDS011;22766;48.042;11.192;2022-09-16T01:40:55;2.88;;;1.73;;
36827;SDS011;22766;48.042;11.192;2022-09-16T01:48:57;2.50;;;1.58;;
36827;SDS011;22766;48.042;11.192;2022-09-16T01:51:48;4.25;;;2.15;;
36827;SDS011;22766;48.042;11.192;2022-09-16T01:57:09;2.85;;;1.80;;
36827;SDS011;22766;48.042;11.192;2022-09-16T01:59:43;5.18;;;2.15;;
36827;SDS011;22766;48.042;11.192;2022-09-16T02:02:20;4.43;;;2.00;;
36827;SDS011;22766;48.042;11.192;2022-09-16T02:04:50;4.13;;;2.28;;
36827;SDS011;22766;48.042;11.192;2022-09-16T02:07:22;3.65;;;2.28;;
36827;SDS011;22766;48.042;11.192;2022-09-16T02:09:54;5.38;;;1.80;;
36827;SDS011;22766;48.042;11.192;2022-09-16T02:12:25;2.60;;;1.88;;
36827;SDS011;22766;48.042;11.192;2022-09-16T02:14:58;3.00;;;1.80;;
36827;SDS011;22766;48.042;11.192;2022-09-16T02:17:31;2.72;;;1.88;;
36827;SDS011;22766;48.042;11.192;2022-09-16T02:20:11;3.15;;;1.65;;
36827;SDS011;22766;48.042;11.192;2022-09-16T02:22:44;5.10;;;2.17;;
36827;SDS011;22766;48.042;11.192;2022-09-16T02:25:14;5.50;;;2.50;;
36827;SDS011;22766;48.042;11.192;2022-09-16T02:27:44;4.63;;;2.42;;
36827;SDS011;22766;48.042;11.192;2022-09-16T02:30:14;3.75;;;2.40;;
36827;SDS011;22766;48.042;11.192;2022-09-16T02:32:46;6.55;;;2.83;;
36827;SDS011;22766;48.042;11.192;2022-09-16T02:35:17;3.67;;;1.95;;
36827;SDS011;22766;48.042;11.192;2022-09-16T02:40:36;4.90;;;2.67;;
36827;SDS011;22766;48.042;11.192;2022-09-16T02:43:09;3.83;;;2.13;;
36827;SDS011;22766;48.042;11.192;2022-09-16T02:45:46;3.72;;;2.33;;
36827;SDS011;22766;48.042;11.192;2022-09-16T02:48:24;3.47;;;1.90;;
36827;SDS011;22766;48.042;11.192;2022-09-16T02:51:09;4.15;;;2.30;;
36827;SDS011;22766;48.042;11.192;2022-09-16T02:53:51;4.85;;;2.85;;
36827;SDS011;22766;48.042;11.192;2022-09-16T02:56:29;3.88;;;2.20;;
36827;SDS011;22766;48.042;11.192;2022-09-16T02:58:59;5.95;;;2.85;;
36827;SDS011;22766;48.042;11.192;2022-09-16T03:01:29;5.13;;;2.20;;
36827;SDS011;22766;48.042;11.192;2022-09-16T03:03:59;2.95;;;2.17;;
36827;SDS011;22766;48.042;11.192;2022-09-16T03:06:26;5.13;;;2.20;;
36827;SDS011;22766;48.042;11.192;2022-09-16T03:08:55;3.78;;;1.98;;
36827;SDS011;22766;48.042;11.192;2022-09-16T03:11:32;5.43;;;2.15;;
36827;SDS011;22766;48.042;11.192;2022-09-16T03:22:49;4.38;;;2.28;;
36827;SDS011;22766;48.042;11.192;2022-09-16T03:28:19;4.10;;;2.45;;
36827;SDS011;22766;48.042;11.192;2022-09-16T03:36:13;5.03;;;2.47;;
36827;SDS011;22766;48.042;11.192;2022-09-16T03:38:43;3.95;;;2.20;;
36827;SDS011;22766;48.042;11.192;2022-09-16T03:41:10;4.60;;;2.50;;
36827;SDS011;22766;48.042;11.192;2022-09-16T03:43:39;5.72;;;2.63;;
36827;SDS011;22766;48.042;11.192;2022-09-16T03:46:09;4.47;;;2.25;;
36827;SDS011;22766;48.042;11.192;2022-09-16T03:48:37;5.70;;;2.70;;
36827;SDS011;22766;48.042;11.192;2022-09-16T03:51:03;4.97;;;2.53;;
36827;SDS011;22766;48.042;11.192;2022-09-16T03:53:30;5.05;;;2.60;;
36827;SDS011;22766;48.042;11.192;2022-09-16T03:55:57;4.60;;;2.25;;
36827;SDS011;22766;48.042;11.192;2022-09-16T03:58:23;5.43;;;2.97;;
36827;SDS011;22766;48.042;11.192;2022-09-16T04:00:50;4.60;;;2.78;;
36827;SDS011;22766;48.042;11.192;2022-09-16T04:03:17;5.57;;;3.03;;
36827;SDS011;22766;48.042;11.192;2022-09-16T04:05:43;5.50;;;2.72;;
36827;SDS011;22766;48.042;11.192;2022-09-16T04:08:10;5.65;;;2.50;;
36827;SDS011;22766;48.042;11.192;2022-09-16T04:10:37;8.18;;;3.15;;
36827;SDS011;22766;48.042;11.192;2022-09-16T04:13:04;3.67;;;2.28;;
36827;SDS011;22766;48.042;11.192;2022-09-16T04:15:30;5.00;;;3.00;;
36827;SDS011;22766;48.042;11.192;2022-09-16T04:18:00;4.85;;;3.03;;
36827;SDS011;22766;48.042;11.192;2022-09-16T04:20:26;7.32;;;2.60;;
36827;SDS011;22766;48.042;11.192;2022-09-16T04:22:53;6.82;;;3.25;;
36827;SDS011;22766;48.042;11.192;2022-09-16T04:25:20;4.30;;;2.63;;
36827;SDS011;22766;48.042;11.192;2022-09-16T04:27:46;5.43;;;2.92;;
36827;SDS011;22766;48.042;11.192;2022-09-16T04:30:13;4.88;;;2.70;;
36827;SDS011;22766;48.042;11.192;2022-09-16T04:32:40;6.32;;;4.22;;
36827;SDS011;22766;48.042;11.192;2022-09-16T04:35:06;5.18;;;2.92;;
36827;SDS011;22766;48.042;11.192;2022-09-16T04:37:33;6.93;;;3.08;;
36827;SDS011;22766;48.042;11.192;2022-09-16T04:40:00;4.65;;;2.80;;
36827;SDS011;22766;48.042;11.192;2022-09-16T04:42:30;5.60;;;3.20;;
36827;SDS011;22766;48.042;11.192;2022-09-16T04:44:57;6.18;;;3.17;;
36827;SDS011;22766;48.042;11.192;2022-09-16T04:47:23;4.85;;;2.88;;
36827;SDS011;22766;48.042;11.192;2022-09-16T04:49:50;5.82;;;3.17;;
36827;SDS011;22766;48.042;11.192;2022-09-16T04:52:17;8.57;;;3.40;;
36827;SDS011;22766;48.042;11.192;2022-09-16T04:54:43;9.30;;;3.70;;
36827;SDS011;22766;48.042;11.192;2022-09-16T04:57:10;8.20;;;3.63;;
36827;SDS011;22766;48.042;11.192;2022-09-16T04:59:36;8.35;;;3.00;;
36827;SDS011;22766;48.042;11.192;2022-09-16T05:02:03;8.57;;;3.15;;
36827;SDS011;22766;48.042;11.192;2022-09-16T05:04:30;4.93;;;2.83;;
36827;SDS011;22766;48.042;11.192;2022-09-16T05:06:57;4.05;;;2.80;;
36827;SDS011;22766;48.042;11.192;2022-09-16T05:09:23;5.47;;;2.78;;
36827;SDS011;22766;48.042;11.192;2022-09-16T05:11:51;7.93;;;2.92;;
36827;SDS011;22766;48.042;11.192;2022-09-16T05:14:18;7.32;;;2.92;;
36827;SDS011;22766;48.042;11.192;2022-09-16T05:16:45;5.55;;;2.33;;
36827;SDS011;22766;48.042;11.192;2022-09-16T05:19:12;5.40;;;2.92;;
36827;SDS011;22766;48.042;11.192;2022-09-16T05:21:40;4.65;;;2.75;;
36827;SDS011;22766;48.042;11.192;2022-09-16T05:24:10;5.63;;;3.50;;
36827;SDS011;22766;48.042;11.192;2022-09-16T05:26:39;5.97;;;3.67;;
36827;SDS011;22766;48.042;11.192;2022-09-16T05:29:10;5.10;;;2.67;;
36827;SDS011;22766;48.042;11.192;2022-09-16T05:31:39;4.55;;;2.53;;
36827;SDS011;22766;48.042;11.192;2022-09-16T05:36:44;6.63;;;2.83;;
36827;SDS011;22766;48.042;11.192;2022-09-16T05:39:13;6.90;;;3.50;;
36827;SDS011;22766;48.042;11.192;2022-09-16T05:41:49;5.82;;;3.42;;
36827;SDS011;22766;48.042;11.192;2022-09-16T05:44:18;6.68;;;3.22;;
36827;SDS011;22766;48.042;11.192;2022-09-16T05:46:45;5.03;;;3.10;;
36827;SDS011;22766;48.042;11.192;2022-09-16T05:49:11;6.35;;;3.22;;
36827;SDS011;22766;48.042;11.192;2022-09-16T05:51:38;4.80;;;2.83;;
36827;SDS011;22766;48.042;11.192;2022-09-16T05:54:06;5.97;;;2.90;;
36827;SDS011;22766;48.042;11.192;2022-09-16T05:56:33;6.60;;;3.65;;
36827;SDS011;22766;48.042;11.192;2022-09-16T05:59:00;4.82;;;3.03;;
36827;SDS011;22766;48.042;11.192;2022-09-16T06:01:28;6.63;;;3.45;;
36827;SDS011;22766;48.042;11.192;2022-09-16T06:03:58;9.57;;;2.83;;
36827;SDS011;22766;48.042;11.192;2022-09-16T06:06:30;7.20;;;3.05;;
36827;SDS011;22766;48.042;11.192;2022-09-16T06:09:14;4.47;;;3.08;;
36827;SDS011;22766;48.042;11.192;2022-09-16T06:11:44;4.28;;;2.80;;
36827;SDS011;22766;48.042;11.192;2022-09-16T06:14:13;5.20;;;2.85;;
36827;SDS011;22766;48.042;11.192;2022-09-16T06:16:41;5.40;;;2.90;;
36827;SDS011;22766;48.042;11.192;2022-09-16T06:19:16;4.45;;;2.42;;
36827;SDS011;22766;48.042;11.192;2022-09-16T06:21:43;6.13;;;3.15;;
36827;SDS011;22766;48.042;11.192;2022-09-16T06:24:11;10.63;;;3.28;;
36827;SDS011;22766;48.042;11.192;2022-09-16T06:26:41;4.55;;;2.47;;
36827;SDS011;22766;48.042;11.192;2022-09-16T06:29:09;4.45;;;2.88;;
36827;SDS011;22766;48.042;11.192;2022-09-16T06:31:37;6.22;;;3.25;;
36827;SDS011;22766;48.042;11.192;2022-09-16T06:34:04;5.55;;;3.03;;
36827;SDS011;22766;48.042;11.192;2022-09-16T06:36:32;6.47;;;2.70;;
36827;SDS011;22766;48.042;11.192;2022-09-16T06:39:05;5.28;;;3.13;;
36827;SDS011;22766;48.042;11.192;2022-09-16T06:41:33;4.07;;;2.60;;
36827;SDS011;22766;48.042;11.192;2022-09-16T06:44:00;6.25;;;2.92;;
36827;SDS011;22766;48.042;11.192;2022-09-16T06:46:27;4.47;;;2.92;;
36827;SDS011;22766;48.042;11.192;2022-09-16T06:48:55;6.43;;;3.38;;
36827;SDS011;22766;48.042;11.192;2022-09-16T06:51:28;5.75;;;3.30;;
36827;SDS011;22766;48.042;11.192;2022-09-16T06:54:01;4.88;;;2.95;;
36827;SDS011;22766;48.042;11.192;2022-09-16T06:56:29;5.32;;;3.40;;
36827;SDS011;22766;48.042;11.192;2022-09-16T06:58:56;5.35;;;2.95;;
36827;SDS011;22766;48.042;11.192;2022-09-16T07:01:24;4.20;;;2.83;;
36827;SDS011;22766;48.042;11.192;2022-09-16T07:03:55;6.05;;;3.47;;
36827;SDS011;22766;48.042;11.192;2022-09-16T07:06:25;5.32;;;2.92;;
36827;SDS011;22766;48.042;11.192;2022-09-16T07:09:14;4.63;;;3.08;;
36827;SDS011;22766;48.042;11.192;2022-09-16T07:11:41;5.10;;;3.03;;
36827;SDS011;22766;48.042;11.192;2022-09-16T07:14:07;5.18;;;2.97;;
36827;SDS011;22766;48.042;11.192;2022-09-16T07:16:34;5.85;;;3.17;;
36827;SDS011;22766;48.042;11.192;2022-09-16T07:19:03;6.25;;;3.40;;
36827;SDS011;22766;48.042;11.192;2022-09-16T07:21:30;8.02;;;3.65;;
36827;SDS011;22766;48.042;11.192;2022-09-16T07:23:58;5.43;;;3.30;;
36827;SDS011;22766;48.042;11.192;2022-09-16T07:26:27;4.40;;;2.83;;
36827;SDS011;22766;48.042;11.192;2022-09-16T07:28:57;7.57;;;3.35;;
36827;SDS011;22766;48.042;11.192;2022-09-16T07:31:26;7.30;;;3.28;;
36827;SDS011;22766;48.042;11.192;2022-09-16T07:33:55;5.07;;;2.80;;
36827;SDS011;22766;48.042;11.192;2022-09-16T07:36:30;4.47;;;2.35;;
36827;SDS011;22766;48.042;11.192;2022-09-16T07:38:59;5.43;;;2.70;;
36827;SDS011;22766;48.042;11.192;2022-09-16T07:41:27;6.45;;;2.85;;
36827;SDS011;22766;48.042;11.192;2022-09-16T07:43:57;4.40;;;2.42;;
36827;SDS011;22766;48.042;11.192;2022-09-16T07:46:27;5.97;;;3.15;;
36827;SDS011;22766;48.042;11.192;2022-09-16T07:48:56;6.65;;;2.70;;
36827;SDS011;22766;48.042;11.192;2022-09-16T07:51:25;5.40;;;3.10;;
36827;SDS011;22766;48.042;11.192;2022-09-16T07:53:54;4.68;;;2.70;;
36827;SDS011;22766;48.042;11.192;2022-09-16T07:56:22;5.28;;;2.92;;
36827;SDS011;22766;48.042;11.192;2022-09-16T07:58:51;6.80;;;3.10;;
36827;SDS011;22766;48.042;11.192;2022-09-16T08:01:19;8.02;;;3.22;;
36827;SDS011;22766;48.042;11.192;2022-09-16T08:03:46;6.43;;;2.90;;
36827;SDS011;22766;48.042;11.192;2022-09-16T08:06:15;4.55;;;3.08;;
36827;SDS011;22766;48.042;11.192;2022-09-16T08:08:44;5.03;;;3.00;;
36827;SDS011;22766;48.042;11.192;2022-09-16T08:11:11;5.35;;;2.90;;
36827;SDS011;22766;48.042;11.192;2022-09-16T08:13:40;4.80;;;2.70;;
36827;SDS011;22766;48.042;11.192;2022-09-16T08:16:10;5.15;;;2.78;;
36827;SDS011;22766;48.042;11.192;2022-09-16T08:18:38;4.68;;;2.80;;
36827;SDS011;22766;48.042;11.192;2022-09-16T08:21:06;7.90;;;3.63;;
36827;SDS011;22766;48.042;11.192;2022-09-16T08:23:47;6.35;;;3.17;;
36827;SDS011;22766;48.042;11.192;2022-09-16T08:26:14;9.27;;;4.40;;
36827;SDS011;22766;48.042;11.192;2022-09-16T08:28:42;9.85;;;5.10;;
36827;SDS011;22766;48.042;11.192;2022-09-16T08:31:30;10.40;;;5.32;;
36827;SDS011;22766;48.042;11.192;2022-09-16T08:33:56;8.27;;;3.65;;
36827;SDS011;22766;48.042;11.192;2022-09-16T08:36:24;5.95;;;3.28;;
36827;SDS011;22766;48.042;11.192;2022-09-16T08:38:53;6.25;;;3.78;;
36827;SDS011;22766;48.042;11.192;2022-09-16T08:51:57;4.32;;;2.60;;
36827;SDS011;22766;48.042;11.192;2022-09-16T08:54:27;5.13;;;3.13;;
36827;SDS011;22766;48.042;11.192;2022-09-16T08:57:00;4.68;;;3.03;;
36827;SDS011;22766;48.042;11.192;2022-09-16T08:59:34;5.25;;;3.28;;
36827;SDS011;22766;48.042;11.192;2022-09-16T09:04:52;6.47;;;3.33;;
36827;SDS011;22766;48.042;11.192;2022-09-16T09:07:23;6.25;;;4.03;;
36827;SDS011;22766;48.042;11.192;2022-09-16T09:10:17;5.25;;;3.30;;
36827;SDS011;22766;48.042;11.192;2022-09-16T09:32:04;5.50;;;2.95;;
36827;SDS011;22766;48.042;11.192;2022-09-16T09:40:38;4.70;;;2.80;;
36827;SDS011;22766;48.042;11.192;2022-09-16T09:48:20;8.45;;;2.83;;
36827;SDS011;22766;48.042;11.192;2022-09-16T09:50:50;3.70;;;2.53;;
36827;SDS011;22766;48.042;11.192;2022-09-16T09:55:45;3.63;;;2.45;;
36827;SDS011;22766;48.042;11.192;2022-09-16T10:01:00;7.13;;;2.45;;
36827;SDS011;22766;48.042;11.192;2022-09-16T10:03:29;4.65;;;2.75;;
36827;SDS011;22766;48.042;11.192;2022-09-16T10:05:59;4.15;;;3.00;;
36827;SDS011;22766;48.042;11.192;2022-09-16T10:08:27;5.63;;;2.97;;
36827;SDS011;22766;48.042;11.192;2022-09-16T10:10:57;7.47;;;3.30;;
36827;SDS011;22766;48.042;11.192;2022-09-16T10:13:26;6.80;;;3.22;;
36827;SDS011;22766;48.042;11.192;2022-09-16T10:16:07;6.15;;;2.72;;
36827;SDS011;22766;48.042;11.192;2022-09-16T10:18:38;7.93;;;3.50;;
36827;SDS011;22766;48.042;11.192;2022-09-16T10:21:07;6.10;;;3.50;;
36827;SDS011;22766;48.042;11.192;2022-09-16T10:23:37;8.55;;;4.65;;
36827;SDS011;22766;48.042;11.192;2022-09-16T10:26:24;8.20;;;3.40;;
36827;SDS011;22766;48.042;11.192;2022-09-16T10:29:15;5.93;;;3.10;;
36827;SDS011;22766;48.042;11.192;2022-09-16T10:31:44;6.07;;;3.28;;
36827;SDS011;22766;48.042;11.192;2022-09-16T10:34:14;5.72;;;2.95;;
36827;SDS011;22766;48.042;11.192;2022-09-16T10:37:03;5.82;;;2.88;;
36827;SDS011;22766;48.042;11.192;2022-09-16T10:39:53;7.35;;;2.95;;
36827;SDS011;22766;48.042;11.192;2022-09-16T10:42:23;6.78;;;2.88;;
36827;SDS011;22766;48.042;11.192;2022-09-16T10:44:53;7.53;;;3.50;;
36827;SDS011;22766;48.042;11.192;2022-09-16T10:47:39;7.68;;;3.35;;
36827;SDS011;22766;48.042;11.192;2022-09-16T10:50:07;7.38;;;3.22;;
36827;SDS011;22766;48.042;11.192;2022-09-16T10:52:42;3.95;;;2.28;;
36827;SDS011;22766;48.042;11.192;2022-09-16T10:55:32;4.88;;;3.00;;
36827;SDS011;22766;48.042;11.192;2022-09-16T10:58:07;4.78;;;2.72;;
36827;SDS011;22766;48.042;11.192;2022-09-16T11:11:59;4.45;;;2.60;;
36827;SDS011;22766;48.042;11.192;2022-09-16T11:25:32;6.53;;;2.63;;
36827;SDS011;22766;48.042;11.192;2022-09-16T11:34:09;3.63;;;1.90;;
36827;SDS011;22766;48.042;11.192;2022-09-16T11:42:40;3.15;;;1.38;;
36827;SDS011;22766;48.042;11.192;2022-09-16T11:48:22;4.05;;;1.13;;
36827;SDS011;22766;48.042;11.192;2022-09-16T11:57:06;1.85;;;1.20;;
36827;SDS011;22766;48.042;11.192;2022-09-16T11:59:43;3.47;;;1.10;;
36827;SDS011;22766;48.042;11.192;2022-09-16T12:02:19;2.15;;;1.35;;
36827;SDS011;22766;48.042;11.192;2022-09-16T12:05:00;2.40;;;1.33;;
36827;SDS011;22766;48.042;11.192;2022-09-16T12:07:30;2.50;;;1.55;;
36827;SDS011;22766;48.042;11.192;2022-09-16T12:12:57;2.97;;;1.48;;
36827;SDS011;22766;48.042;11.192;2022-09-16T12:15:39;2.60;;;1.30;;
36827;SDS011;22766;48.042;11.192;2022-09-16T12:18:17;3.03;;;1.42;;
36827;SDS011;22766;48.042;11.192;2022-09-16T12:20:53;4.10;;;1.30;;
36827;SDS011;22766;48.042;11.192;2022-09-16T12:23:30;2.38;;;1.48;;
36827;SDS011;22766;48.042;11.192;2022-09-16T12:34:27;4.20;;;1.13;;
36827;SDS011;22766;48.042;11.192;2022-09-16T12:39:50;2.60;;;1.20;;
36827;SDS011;22766;48.042;11.192;2022-09-16T12:42:23;2.92;;;0.90;;
36827;SDS011;22766;48.042;11.192;2022-09-16T12:59:06;2.65;;;1.30;;
36827;SDS011;22766;48.042;11.192;2022-09-16T13:01:42;1.85;;;1.25;;
36827;SDS011;22766;48.042;11.192;2022-09-16T13:06:51;1.50;;;1.27;;
36827;SDS011;22766;48.042;11.192;2022-09-16T13:12:01;2.03;;;1.20;;
36827;SDS011;22766;48.042;11.192;2022-09-16T13:14:53;2.78;;;1.17;;
36827;SDS011;22766;48.042;11.192;2022-09-16T13:17:35;2.03;;;1.10;;
36827;SDS011;22766;48.042;11.192;2022-09-16T13:25:22;1.30;;;1.00;;
36827;SDS011;22766;48.042;11.192;2022-09-16T13:27:57;1.58;;;1.05;;
36827;SDS011;22766;48.042;11.192;2022-09-16T13:30:26;1.42;;;0.82;;
36827;SDS011;22766;48.042;11.192;2022-09-16T13:36:01;1.40;;;1.02;;
36827;SDS011;22766;48.042;11.192;2022-09-16T13:38:39;1.35;;;0.98;;
36827;SDS011;22766;48.042;11.192;2022-09-16T13:41:11;1.67;;;0.88;;
36827;SDS011;22766;48.042;11.192;2022-09-16T13:46:13;1.33;;;1.00;;
36827;SDS011;22766;48.042;11.192;2022-09-16T13:51:45;3.40;;;1.17;;
36827;SDS011;22766;48.042;11.192;2022-09-16T13:54:17;1.33;;;0.75;;
36827;SDS011;22766;48.042;11.192;2022-09-16T14:05:47;2.35;;;1.02;;
36827;SDS011;22766;48.042;11.192;2022-09-16T14:11:03;2.55;;;1.23;;
36827;SDS011;22766;48.042;11.192;2022-09-16T14:13:55;2.35;;;1.17;;
36827;SDS011;22766;48.042;11.192;2022-09-16T14:16:32;1.65;;;0.88;;
36827;SDS011;22766;48.042;11.192;2022-09-16T14:19:02;3.28;;;1.20;;
36827;SDS011;22766;48.042;11.192;2022-09-16T14:21:31;2.33;;;1.07;;
36827;SDS011;22766;48.042;11.192;2022-09-16T14:24:17;3.35;;;1.77;;
36827;SDS011;22766;48.042;11.192;2022-09-16T14:26:52;1.92;;;1.20;;
36827;SDS011;22766;48.042;11.192;2022-09-16T14:29:20;2.38;;;1.45;;
36827;SDS011;22766;48.042;11.192;2022-09-16T14:31:48;3.28;;;1.50;;
36827;SDS011;22766;48.042;11.192;2022-09-16T14:36:58;2.42;;;1.40;;
36827;SDS011;22766;48.042;11.192;2022-09-16T14:39:26;4.43;;;1.77;;
36827;SDS011;22766;48.042;11.192;2022-09-16T14:42:01;2.20;;;1.38;;
36827;SDS011;22766;48.042;11.192;2022-09-16T14:44:34;1.95;;;1.60;;
36827;SDS011;22766;48.042;11.192;2022-09-16T14:47:18;3.67;;;1.90;;
36827;SDS011;22766;48.042;11.192;2022-09-16T14:50:12;3.58;;;1.60;;
36827;SDS011;22766;48.042;11.192;2022-09-16T14:52:55;3.00;;;1.75;;
36827;SDS011;22766;48.042;11.192;2022-09-16T14:55:34;3.00;;;1.90;;
36827;SDS011;22766;48.042;11.192;2022-09-16T14:58:05;2.90;;;1.65;;
36827;SDS011;22766;48.042;11.192;2022-09-16T15:05:56;3.53;;;1.85;;
36827;SDS011;22766;48.042;11.192;2022-09-16T15:08:39;3.47;;;1.40;;
36827;SDS011;22766;48.042;11.192;2022-09-16T15:11:13;4.18;;;1.63;;
36827;SDS011;22766;48.042;11.192;2022-09-16T15:14:06;4.10;;;1.60;;
36827;SDS011;22766;48.042;11.192;2022-09-16T15:16:38;2.33;;;1.67;;
36827;SDS011;22766;48.042;11.192;2022-09-16T15:19:15;4.88;;;2.03;;
36827;SDS011;22766;48.042;11.192;2022-09-16T15:21:51;3.65;;;1.50;;
36827;SDS011;22766;48.042;11.192;2022-09-16T15:24:21;2.38;;;1.60;;
36827;SDS011;22766;48.042;11.192;2022-09-16T15:26:54;3.90;;;1.27;;
36827;SDS011;22766;48.042;11.192;2022-09-16T15:31:48;3.28;;;1.77;;
36827;SDS011;22766;48.042;11.192;2022-09-16T15:36:46;2.30;;;1.75;;
36827;SDS011;22766;48.042;11.192;2022-09-16T15:42:07;3.83;;;1.85;;
36827;SDS011;22766;48.042;11.192;2022-09-16T15:44:42;4.72;;;1.95;;
36827;SDS011;22766;48.042;11.192;2022-09-16T15:47:31;2.65;;;1.70;;
36827;SDS011;22766;48.042;11.192;2022-09-16T15:50:04;3.85;;;2.00;;
36827;SDS011;22766;48.042;11.192;2022-09-16T15:52:33;4.25;;;2.15;;
36827;SDS011;22766;48.042;11.192;2022-09-16T15:55:14;2.78;;;1.85;;
36827;SDS011;22766;48.042;11.192;2022-09-16T15:58:16;2.78;;;1.95;;
36827;SDS011;22766;48.042;11.192;2022-09-16T16:03:59;3.83;;;1.88;;
36827;SDS011;22766;48.042;11.192;2022-09-16T16:12:00;4.07;;;1.88;;
36827;SDS011;22766;48.042;11.192;2022-09-16T16:14:29;3.50;;;1.98;;
36827;SDS011;22766;48.042;11.192;2022-09-16T16:17:01;3.92;;;2.10;;
36827;SDS011;22766;48.042;11.192;2022-09-16T16:22:10;4.05;;;2.35;;
36827;SDS011;22766;48.042;11.192;2022-09-16T16:24:37;3.45;;;2.17;;
36827;SDS011;22766;48.042;11.192;2022-09-16T16:27:05;4.10;;;2.38;;
36827;SDS011;22766;48.042;11.192;2022-09-16T16:29:34;4.97;;;2.50;;
36827;SDS011;22766;48.042;11.192;2022-09-16T16:34:35;4.72;;;2.50;;
36827;SDS011;22766;48.042;11.192;2022-09-16T16:37:03;4.28;;;2.40;;
36827;SDS011;22766;48.042;11.192;2022-09-16T16:39:31;5.82;;;2.38;;
36827;SDS011;22766;48.042;11.192;2022-09-16T16:41:58;3.95;;;2.65;;
36827;SDS011;22766;48.042;11.192;2022-09-16T16:44:25;4.57;;;2.50;;
36827;SDS011;22766;48.042;11.192;2022-09-16T16:46:52;3.50;;;2.30;;
36827;SDS011;22766;48.042;11.192;2022-09-16T16:49:20;4.22;;;2.55;;
36827;SDS011;22766;48.042;11.192;2022-09-16T16:51:48;6.05;;;2.20;;
36827;SDS011;22766;48.042;11.192;2022-09-16T16:54:20;4.45;;;2.28;;
36827;SDS011;22766;48.042;11.192;2022-09-16T16:56:47;3.22;;;1.83;;
36827;SDS011;22766;48.042;11.192;2022-09-16T16:59:15;3.67;;;2.15;;
36827;SDS011;22766;48.042;11.192;2022-09-16T17:01:44;2.78;;;1.63;;
36827;SDS011;22766;48.042;11.192;2022-09-16T17:04:14;4.43;;;2.70;;
36827;SDS011;22766;48.042;11.192;2022-09-16T17:06:41;5.50;;;2.22;;
36827;SDS011;22766;48.042;11.192;2022-09-16T17:09:08;3.60;;;2.40;;
36827;SDS011;22766;48.042;11.192;2022-09-16T17:11:57;5.97;;;2.72;;
36827;SDS011;22766;48.042;11.192;2022-09-16T17:14:35;5.20;;;2.70;;
36827;SDS011;22766;48.042;11.192;2022-09-16T17:17:02;6.07;;;2.78;;
36827;SDS011;22766;48.042;11.192;2022-09-16T17:19:29;4.53;;;2.35;;
36827;SDS011;22766;48.042;11.192;2022-09-16T17:21:57;5.18;;;2.90;;
36827;SDS011;22766;48.042;11.192;2022-09-16T17:24:24;4.28;;;2.47;;
36827;SDS011;22766;48.042;11.192;2022-09-16T17:26:51;6.28;;;2.13;;
36827;SDS011;22766;48.042;11.192;2022-09-16T17:29:18;7.55;;;3.15;;
36827;SDS011;22766;48.042;11.192;2022-09-16T17:31:44;6.40;;;2.70;;
36827;SDS011;22766;48.042;11.192;2022-09-16T17:34:12;5.80;;;2.58;;
36827;SDS011;22766;48.042;11.192;2022-09-16T17:36:41;4.50;;;2.40;;
36827;SDS011;22766;48.042;11.192;2022-09-16T17:39:11;4.15;;;2.30;;
36827;SDS011;22766;48.042;11.192;2022-09-16T17:41:40;5.22;;;2.70;;
36827;SDS011;22766;48.042;11.192;2022-09-16T17:44:11;4.13;;;2.25;;
36827;SDS011;22766;48.042;11.192;2022-09-16T17:46:39;5.63;;;2.75;;
36827;SDS011;22766;48.042;11.192;2022-09-16T17:49:18;3.83;;;2.10;;
36827;SDS011;22766;48.042;11.192;2022-09-16T17:51:48;5.05;;;2.78;;
36827;SDS011;22766;48.042;11.192;2022-09-16T17:54:16;3.80;;;2.53;;
36827;SDS011;22766;48.042;11.192;2022-09-16T17:56:43;3.42;;;2.38;;
36827;SDS011;22766;48.042;11.192;2022-09-16T17:59:14;4.88;;;3.08;;
36827;SDS011;22766;48.042;11.192;2022-09-16T18:01:42;4.32;;;2.30;;
36827;SDS011;22766;48.042;11.192;2022-09-16T18:04:09;4.28;;;2.67;;
36827;SDS011;22766;48.042;11.192;2022-09-16T18:06:43;7.50;;;2.85;;
36827;SDS011;22766;48.042;11.192;2022-09-16T18:09:11;6.53;;;3.25;;
36827;SDS011;22766;48.042;11.192;2022-09-16T18:11:39;4.40;;;2.70;;
36827;SDS011;22766;48.042;11.192;2022-09-16T18:14:07;6.90;;;3.05;;
36827;SDS011;22766;48.042;11.192;2022-09-16T18:16:36;5.68;;;3.33;;
36827;SDS011;22766;48.042;11.192;2022-09-16T18:19:03;7.10;;;2.75;;
36827;SDS011;22766;48.042;11.192;2022-09-16T18:21:31;6.00;;;2.50;;
36827;SDS011;22766;48.042;11.192;2022-09-16T18:24:00;10.45;;;2.70;;
36827;SDS011;22766;48.042;11.192;2022-09-16T18:26:29;5.07;;;2.60;;
36827;SDS011;22766;48.042;11.192;2022-09-16T18:28:57;3.20;;;2.33;;
36827;SDS011;22766;48.042;11.192;2022-09-16T18:31:36;5.13;;;2.40;;
36827;SDS011;22766;48.042;11.192;2022-09-16T18:36:35;3.67;;;2.05;;
36827;SDS011;22766;48.042;11.192;2022-09-16T18:39:03;4.95;;;2.25;;
36827;SDS011;22766;48.042;11.192;2022-09-16T18:41:35;4.10;;;2.78;;
36827;SDS011;22766;48.042;11.192;2022-09-16T18:44:05;6.90;;;2.97;;
36827;SDS011;22766;48.042;11.192;2022-09-16T18:46:37;5.65;;;2.78;;
36827;SDS011;22766;48.042;11.192;2022-09-16T18:49:04;4.78;;;2.75;;
36827;SDS011;22766;48.042;11.192;2022-09-16T18:54:00;6.43;;;3.78;;
36827;SDS011;22766;48.042;11.192;2022-09-16T18:56:30;7.97;;;2.95;;
36827;SDS011;22766;48.042;11.192;2022-09-16T19:01:50;4.60;;;2.63;;
36827;SDS011;22766;48.042;11.192;2022-09-16T19:04:20;5.25;;;2.53;;